Tiempo atmosférico en la estación meteorológica de Vallehermoso, Dama, Santa Cruz de Tenerife (190 m.)



Fecha
DESCASC
Temp. máxima en grados centígrados (hora)
DESCASC
Temp. mínima en grados centígrados (hora)
DESCASC
Temp. media en grados centígrados
DESCASC
Racha de viento máxima en m/sg (hora)
DESCASC
Velocidad máxima media en intervalos de 10 minutos(hora)
DESCASC
Precipitaciones diarias en mm
DESCASC
Precipitaciones de 00:00 a 06:00 en mm
DESCASC
Precipitaciones de 06:00 a 12:00 en mm
DESCASC
Precipitaciones de 12:00 a 18:00 en mm
DESCASC
Precipitaciones de 18:00 a 24:00 en mm
DESCASC
02-04-2020 21.7 (14:40) 15 (04:20) 18.4 6.11 (13:50) 3.61 (17:10) 0 0 0 0 0
01-04-2020 22 (16:40) 13.5 (07:30) 17.8 5.83 (17:00) 3.61 (17:00) 0 0 0 0 0
31-03-2020 25.1 (15:40) 14.9 (00:00) 20 8.89 (19:40) 5.83 (20:00) 0 0 0 0 0
30-03-2020 23.9 (13:40) 12.9 (07:10) 18.4 9.44 (22:50) 5.56 (22:20) 0 0 0 0 0
29-03-2020 21.6 (17:10) 12.7 (00:00) 17.2 7.22 (23:40) 4.72 (23:40) 0 0 0 0 0
28-03-2020 21.5 (16:40) 12.7 (00:00) 17.1 7.78 (05:40) 4.72 (05:40) 0 0 0 0 0
27-03-2020 22.7 (14:30) 13 (00:00) 17.9 11.11 (12:00) 6.67 (12:20) 0 0 0 0 0
26-03-2020 21.1 (11:40) 13.8 (00:00) 17.5 6.94 (23:30) 3.61 (16:10) 0 0 0 0 0
25-03-2020 22.1 (17:20) 14.4 (00:00) 18.3 6.94 (03:10) 3.61 (03:10) 2 0 2 0 0
24-03-2020 22.6 (13:30) 14.7 (00:00) 18.7 10.83 (01:40) 5.28 (02:40) 0 0 0 0 0
23-03-2020 19.7 (14:30) 13.9 (00:00) 16.8 18.61 (14:10) 11.11 (08:00) 5.6 0.6 5 0 0
22-03-2020 22.3 (11:50) 14.4 (07:10) 18.3 16.39 (23:50) 10 (22:00) 0.2 0 0 0 0.2
21-03-2020 22.9 (14:00) 14.9 (00:00) 18.9 9.72 (08:10) 5.28 (07:20) 0 0 0 0 0
20-03-2020 24.3 (15:10) 15.4 (00:00) 19.8 11.67 (00:30) 6.11 (00:30) 0 0 0 0 0
19-03-2020 21.9 (12:10) 16 (00:00) 18.9 13.33 (07:40) 6.11 (23:10) 0 0 0 0 0
18-03-2020 23.1 (12:50) 13.8 (00:00) 18.5 13.33 (16:30) 6.39 (15:00) 0 0 0 0 0
17-03-2020 24.1 (15:00) 13.7 (00:00) 18.9 8.61 (08:00) 3.89 (09:00) 0 0 0 0 0
16-03-2020 24.5 (13:50) 16.2 (00:00) 20.4 11.94 (11:10) 5.28 (15:30) 0 0 0 0 0
15-03-2020 23.3 (14:10) 13.1 (00:00) 18.2 12.22 (18:40) 5.28 (21:00) 0 0 0 0 0
14-03-2020 22.8 (16:40) 14.6 (00:00) 18.7 7.78 (22:00) 4.17 (14:30) 0 0 0 0 0
13-03-2020 23.7 (11:30) 14.3 (04:50) 19 7.22 (11:00) 4.72 (11:00) 0 0 0 0 0
12-03-2020 26.8 (13:20) 15.7 (00:00) 21.2 6.11 (07:00) 3.89 (05:00) 0 0 0 0 0
11-03-2020 25.7 (15:10) 15.2 (00:00) 20.5 5.83 (13:50) 3.89 (13:40) 0 0 0 0 0
10-03-2020 25.9 (13:10) 15.3 (00:00) 20.6 5 (13:40) 2.78 (08:30) 0 0 0 0 0
09-03-2020 27.1 (15:00) 17.2 (00:00) 22.2 11.11 (03:20) 6.94 (04:30) 0 0 0 0 0
08-03-2020 25.1 (16:20) 13.6 (00:00) 19.4 6.11 (15:40) 3.61 (15:40) 0 0 0 0 0
07-03-2020 22.9 (12:00) 13.3 (00:00) 18.1 5.28 (16:40) 3.06 (13:50) 0 0 0 0 0
06-03-2020 23.8 (13:30) 14.9 (00:00) 19.3 6.67 (08:30) 3.89 (13:50) 0 0 0 0 0
05-03-2020 23.9 (13:10) 15.5 (00:00) 19.7 6.11 (04:10) 3.61 (15:00) 0 0 0 0 0

Gráficas

Temp. máximas Temp. mínimas Temp. medias Precipitaciones Rachas de viento máximas Velocidades máximas media en intervalos de 10 minutos

Datos horarios

Fecha y hora oficial Temperatura (ºC) Velocidad del viento (km/h) Dirección del viento Racha (km/h) Dirección de racha Precipitación (mm) Presión (hPa) Tendencia (hPa) Humedad (%)
2020-04-03 23:00:00 18.7 12 Noroeste 22 Noroeste 0 -- -- 93
2020-04-03 22:00:00 18.8 7 Noroeste 17 Noroeste 0 -- -- 94
2020-04-03 21:00:00 18.8 6 Oeste 14 Oeste 0 -- -- 92
2020-04-03 20:00:00 18.8 7 Oeste 14 Oeste 0 -- -- 92
2020-04-03 19:00:00 18.7 10 Oeste 17 Oeste 0 -- -- 91
2020-04-03 18:00:00 18.7 7 Sudoeste 21 Oeste 0 -- -- 92
2020-04-03 17:00:00 19 9 Sudoeste 15 Sudoeste 0 -- -- 86
2020-04-03 16:00:00 19.9 6 Sur 16 Sudoeste 0 -- -- 78
2020-04-03 15:00:00 20.1 6 Sudoeste 16 Sur 0 -- -- 76
2020-04-03 14:00:00 20.6 5 Sur 13 Sudoeste 0 -- -- 73
2020-04-03 13:00:00 20.1 7 Sur 12 Sudoeste 0 -- -- 73
2020-04-03 12:00:00 20.5 6 Sur 14 Sur 0 -- -- 72
2020-04-03 11:00:00 18.7 7 Sur 15 Sur 0 -- -- 76
2020-04-03 10:00:00 18.1 7 Sur 13 Sur 0 -- -- 79
2020-04-03 09:00:00 16.9 6 Sudeste 12 Sur 0 -- -- 83
2020-04-03 08:00:00 16.7 5 Sudeste 17 Sudeste 0 -- -- 80
2020-04-03 07:00:00 16.8 12 Sur 18 Sur 0 -- -- 80
2020-04-03 06:00:00 16.6 9 Sur 17 Sur 0 -- -- 83
2020-04-03 05:00:00 16.8 12 Sur 19 Sur 0 -- -- 82
2020-04-03 04:00:00 17.1 10 Sur 19 Sudeste 0 -- -- 82
2020-04-03 03:00:00 17.2 11 Sur 19 Sur 0 -- -- 83
2020-04-03 02:00:00 17.2 10 Sur 17 Sudeste 0 -- -- 84
2020-04-03 01:00:00 17.5 9 Sur 15 Sur 0 -- -- 82
2020-04-03 00:00:00 17.6 0 Calma 8 Noroeste 0 -- -- 79
2020-04-02 23:00:00 17.7 4 Noroeste 8 Noroeste 0 -- -- 79
2020-04-02 22:00:00 17.6 2 Sudoeste 6 Oeste 0 -- -- 79
2020-04-02 21:00:00 17.9 4 Sudoeste 10 Oeste 0 -- -- 77
2020-04-02 20:00:00 18.6 4 Sudoeste 12 Oeste 0 -- -- 74
2020-04-02 19:00:00 19.4 6 Sudoeste 17 Sudoeste 0 -- -- 72
2020-04-02 18:00:00 20.1 8 Sur 22 Sur 0 -- -- 69
2020-04-02 17:00:00 20.8 12 Sur 21 Sur 0 -- -- 66
2020-04-02 16:00:00 20.4 11 Sur 16 Sur 0 -- -- 68
2020-04-02 15:00:00 21.2 10 Sur 20 Sur 0 -- -- 66
2020-04-02 14:00:00 20.9 12 Sur 22 Sur 0 -- -- 67
2020-04-02 13:00:00 20.5 12 Sur 21 Sur 0 -- -- 69
2020-04-02 12:00:00 19 10 Sur 17 Sur 0 -- -- 72
2020-04-02 11:00:00 20.3 6 Sur 14 Sur 0 -- -- 70
2020-04-02 10:00:00 19.1 5 Sudoeste 6 Sudoeste 0 -- -- 75
2020-04-02 09:00:00 15.8 4 Nordeste 9 Este 0 -- -- 86
2020-04-02 08:00:00 15.7 5 Sudeste 9 Sudeste 0 -- -- 82
2020-04-02 07:00:00 15.2 5 Este 11 Este 0 -- -- 85
2020-04-02 06:00:00 15.2 7 Este 9 Este 0 -- -- 86
2020-04-02 05:00:00 15.1 4 Este 8 Sudeste 0 -- -- 86
2020-04-02 04:00:00 15.5 0 Calma 5 Este 0 -- -- 85
2020-04-02 03:00:00 16.7 0 Calma 9 Noroeste 0 -- -- 84
2020-04-02 02:00:00 16.4 0 Calma 6 Noroeste 0 -- -- 88
2020-04-02 01:00:00 16 2 Noroeste 5 Noroeste 0 -- -- 88
2020-04-02 00:00:00 16.3 2 Noroeste 4 Oeste 0 -- -- 85
2020-04-01 23:00:00 17.6 0 Calma 6 Sudoeste 0 -- -- 81
2020-04-01 22:00:00 18.2 3 Sudoeste 7 Sudoeste 0 -- -- 80
2020-04-01 21:00:00 18.6 5 Oeste 9 Sudoeste 0 -- -- 78
2020-04-01 20:00:00 19.3 5 Sudoeste 10 Oeste 0 -- -- 75
2020-04-01 19:00:00 19.8 8 Sur 13 Sur 0 -- -- 73
2020-04-01 18:00:00 20.6 9 Sur 19 Sur 0 -- -- 70
2020-04-01 17:00:00 21.9 13 Sur 21 Sur 0 -- -- 64
2020-04-01 16:00:00 21.6 12 Sur 18 Sur 0 -- -- 66
2020-04-01 15:00:00 19.8 8 Sur 15 Sudeste 0 -- -- 75
2020-04-01 14:00:00 19.6 7 Sur 17 Sur 0 -- -- 75
2020-04-01 13:00:00 20.3 10 Sur 16 Sur 0 -- -- 72
2020-04-01 12:00:00 21.6 7 Sudoeste 12 Oeste 0 -- -- 66
2020-04-01 11:00:00 21.2 6 Oeste 12 Oeste 0 -- -- 71
2020-04-01 10:00:00 19.1 4 Oeste 8 Oeste 0 -- -- 73
2020-04-01 09:00:00 15 6 Este 9 Este 0 -- -- 85
2020-04-01 08:00:00 13.7 4 Este 5 Sudeste 0 -- -- 88
2020-04-01 07:00:00 13.8 2 Este 7 Sudeste 0 -- -- 87
2020-04-01 06:00:00 14.2 6 Este 7 Este 0 -- -- 85
2020-04-01 05:00:00 14.4 3 Este 8 Este 0 -- -- 85
2020-04-01 04:00:00 14.7 4 Nordeste 10 Este 0 -- -- 85
2020-04-01 03:00:00 15.3 5 Este 9 Este 0 -- -- 85
2020-04-01 02:00:00 15.5 3 Sudeste 9 Noroeste 0 -- -- 84
2020-04-01 01:00:00 16.1 6 Norte 12 Noroeste 0 -- -- 83
2020-04-01 00:00:00 16.6 2 Sudeste 8 Este 0 -- -- 79
2020-03-31 23:00:00 17.4 5 Sudeste 13 Sudeste 0 -- -- 79
2020-03-31 22:00:00 17.4 3 Oeste 12 Noroeste 0 -- -- 73
2020-03-31 21:00:00 18.3 6 Norte 28 Noroeste 0 -- -- 68
2020-03-31 20:00:00 19.3 21 Norte 32 Norte 0 -- -- 62
2020-03-31 19:00:00 21.2 17 Norte 30 Norte 0 -- -- 59
2020-03-31 18:00:00 23.2 14 Noroeste 26 Norte 0 -- -- 54
2020-03-31 17:00:00 24.6 13 Noroeste 20 Noroeste 0 -- -- 47
2020-03-31 16:00:00 24.7 11 Noroeste 19 Noroeste 0 -- -- 55
2020-03-31 15:00:00 24.3 9 Oeste 15 Oeste 0 -- -- 58
2020-03-31 14:00:00 22.6 8 Sudoeste 14 Sudoeste 0 -- -- 65
2020-03-31 13:00:00 22.2 9 Sur 15 Sudoeste 0 -- -- 66
2020-03-31 12:00:00 20.9 9 Sur 15 Sur 0 -- -- 71
2020-03-31 11:00:00 20.4 8 Sur 13 Sur 0 -- -- 72
2020-03-31 10:00:00 19 3 Sudoeste 6 Sudoeste 0 -- -- 77
2020-03-31 09:00:00 15.1 4 Este 6 Nordeste 0 -- -- 92
2020-03-31 08:00:00 15.8 4 Sudeste 12 Sudoeste 0 -- -- 89
2020-03-31 07:00:00 16 6 Oeste 17 Norte 0 -- -- 89
2020-03-31 06:00:00 16.2 7 Norte 19 Norte 0 -- -- 92
2020-03-31 05:00:00 16.7 9 Norte 22 Norte 0 -- -- 92
2020-03-31 04:00:00 17 8 Norte 15 Noroeste 0 -- -- 90
2020-03-31 03:00:00 16.4 5 Sudeste 9 Sur 0 -- -- 85
2020-03-31 02:00:00 15.5 3 Nordeste 11 Sudeste 0 -- -- 86
2020-03-31 01:00:00 16.8 6 Sur 21 Norte 0 -- -- 84
2020-03-31 00:00:00 17.4 13 Norte 29 Norte 0 -- -- 86
2020-03-30 23:00:00 17.8 19 Norte 34 Norte 0 -- -- 85
2020-03-30 22:00:00 17.7 17 Norte 32 Norte 0 -- -- 83
2020-03-30 21:00:00 18.1 16 Norte 28 Norte 0 -- -- 83
2020-03-30 20:00:00 19.1 13 Norte 28 Noroeste 0 -- -- 77
2020-03-30 19:00:00 20.2 11 Noroeste 29 Noroeste 0 -- -- 71
2020-03-30 18:00:00 21.1 13 Noroeste 26 Noroeste 0 -- -- 68
2020-03-30 17:00:00 22.3 15 Noroeste 33 Norte 0 -- -- 62
2020-03-30 16:00:00 22.7 17 Noroeste 30 Noroeste 0 -- -- 65
2020-03-30 15:00:00 22.7 18 Noroeste 32 Noroeste 0 -- -- 61
2020-03-30 14:00:00 23.4 14 Noroeste 25 Noroeste 0 -- -- 58
2020-03-30 13:00:00 23.3 13 Noroeste 23 Noroeste 0 -- -- 57
2020-03-30 12:00:00 22.9 12 Noroeste 20 Noroeste 0 -- -- 57
2020-03-30 11:00:00 21.8 10 Noroeste 18 Noroeste 0 -- -- 61
2020-03-30 10:00:00 19.3 8 Noroeste 15 Noroeste 0 -- -- 68
2020-03-30 09:00:00 16.1 6 Norte 15 Norte 0 -- -- 80
2020-03-30 08:00:00 13.9 6 Nordeste 8 Nordeste 0 -- -- 87
2020-03-30 07:00:00 13 4 Nordeste 6 Nordeste 0 -- -- 87
2020-03-30 06:00:00 13.4 5 Nordeste 7 Este 0 -- -- 85
2020-03-30 05:00:00 14.7 6 Sudeste 13 Sudeste 0 -- -- 80
2020-03-30 04:00:00 14.7 8 Sudeste 11 Sudeste 0 -- -- 82
2020-03-30 03:00:00 15 6 Este 13 Norte 0 -- -- 77
2020-03-30 02:00:00 16 5 Norte 27 Norte 0 -- -- 76
2020-03-30 01:00:00 16.5 18 Norte 32 Norte 0 -- -- 77
2020-03-30 00:00:00 16.6 14 Norte 26 Noroeste 0 -- -- 76
2020-03-29 23:00:00 16.6 13 Norte 25 Norte 0 -- -- 78
2020-03-29 22:00:00 16.7 12 Norte 23 Noroeste 0 -- -- 77
2020-03-29 21:00:00 17 12 Norte 23 Noroeste 0 -- -- 77
2020-03-29 20:00:00 18.3 13 Noroeste 23 Noroeste 0 -- -- 70
2020-03-29 19:00:00 20.4 11 Noroeste 18 Norte 0 -- -- 60
2020-03-29 18:00:00 21.6 10 Noroeste 15 Noroeste 0 -- -- 57
2020-03-29 17:00:00 21.3 9 Sudoeste 14 Sudoeste 0 -- -- 59
2020-03-29 16:00:00 19.9 8 Sur 14 Sur 0 -- -- 64
2020-03-29 15:00:00 20 7 Sudoeste 13 Oeste 0 -- -- 66
2020-03-29 14:00:00 18.7 5 Sur 10 Oeste 0 -- -- 66
2020-03-29 13:00:00 19.2 7 Sudoeste 13 Sudoeste 0 -- -- 66
2020-03-29 12:00:00 19.4 8 Sur 13 Sur 0 -- -- 66
2020-03-29 11:00:00 19.5 6 Sudoeste 11 Sudoeste 0 -- -- 68
2020-03-29 10:00:00 17.9 4 Sudoeste 8 Sudoeste 0 -- -- 72
2020-03-29 09:00:00 13.6 4 Este 9 Este 0 -- -- 80
2020-03-29 08:00:00 13.1 7 Este 9 Este 0 -- -- 82
2020-03-29 07:00:00 13.1 4 Sudeste 8 Sudeste 0 -- -- 87
2020-03-29 06:00:00 12.9 3 Este 6 Este 0 -- -- 83
2020-03-29 05:00:00 12.7 2 Nordeste 6 Nordeste 0 -- -- 87
2020-03-29 04:00:00 13.4 4 Este 5 Este 0 -- -- 87
2020-03-29 00:00:00 14.8 3 Noroeste 5 Noroeste 0 -- -- 82
2020-03-28 23:00:00 15.2 0 Calma 6 Sur 0 -- -- 80
2020-03-28 22:00:00 16.2 0 Calma 8 Sudeste 0 -- -- 75
2020-03-28 21:00:00 16.6 2 Sur 11 Sudeste 0 -- -- 74
2020-03-28 20:00:00 17.2 3 Sur 12 Oeste 0 -- -- 70
2020-03-28 19:00:00 18.2 5 Sur 15 Sudeste 0 -- -- 67
2020-03-28 18:00:00 19.6 9 Sur 15 Sudeste 0 -- -- 61
2020-03-28 17:00:00 20.9 9 Sur 17 Sur 0 -- -- 57
2020-03-28 16:00:00 21 10 Sur 18 Sur 0 -- -- 55
2020-03-28 15:00:00 21.3 10 Sur 17 Sur 0 -- -- 54
2020-03-28 14:00:00 21.2 11 Sur 18 Sudoeste 0 -- -- 56
2020-03-28 13:00:00 21 11 Sur 17 Sudeste 0 -- -- 55
2020-03-28 12:00:00 20.5 10 Sur 19 Sur 0 -- -- 54
2020-03-28 11:00:00 19.8 11 Sur 20 Sur 0 -- -- 55
2020-03-28 10:00:00 20.2 8 Sudoeste 11 Sur 0 -- -- 52
2020-03-28 09:00:00 17.8 6 Sur 9 Sur 0 -- -- 58
2020-03-28 08:00:00 13.8 6 Sudeste 11 Sudeste 0 -- -- 68
2020-03-28 07:00:00 13 0 Calma 14 Nordeste 0 -- -- 68
2020-03-28 06:00:00 14.9 12 Nordeste 28 Nordeste 0 -- -- 60
2020-03-28 05:00:00 14.8 11 Nordeste 23 Nordeste 0 -- -- 66
2020-03-28 04:00:00 15 13 Nordeste 22 Nordeste 0 -- -- 62
2020-03-28 03:00:00 14.8 6 Nordeste 26 Norte 0 -- -- 64
2020-03-28 02:00:00 15 8 Norte 21 Nordeste 0 -- -- 62
2020-03-28 01:00:00 15.4 9 Nordeste 24 Nordeste 0 -- -- 62
2020-03-28 00:00:00 15.7 12 Nordeste 31 Norte 0 -- -- 64
2020-03-27 23:00:00 16.2 15 Nordeste 28 Nordeste 0 -- -- 62
2020-03-27 22:00:00 16.5 16 Nordeste 28 Nordeste 0 -- -- 59
2020-03-27 21:00:00 16.6 12 Nordeste 33 Nordeste 0 -- -- 63
2020-03-27 20:00:00 17 13 Nordeste 34 Norte 0 -- -- 66
2020-03-27 19:00:00 18.4 8 Norte 23 Norte 0 -- -- 62
2020-03-27 18:00:00 19.4 11 Noroeste 32 Norte 0 -- -- 63
2020-03-27 17:00:00 20.9 16 Noroeste 34 Noroeste 0 -- -- 62
2020-03-27 16:00:00 22 19 Noroeste 34 Norte 0 -- -- 60
2020-03-27 15:00:00 22 18 Noroeste 37 Noroeste 0 -- -- 58
2020-03-27 14:00:00 22 23 Noroeste 40 Noroeste 0 -- -- 54
2020-03-27 13:00:00 21.7 23 Norte 39 Norte 0 -- -- 54
2020-03-27 12:00:00 20.6 24 Norte 40 Norte 0 -- -- 60
2020-03-27 11:00:00 20.4 19 Norte 32 Norte 0 -- -- 61
2020-03-27 10:00:00 20 14 Norte 27 Noroeste 0 -- -- 61
2020-03-27 09:00:00 18.2 11 Norte 22 Nordeste 0 -- -- 63
2020-03-27 08:00:00 15.2 10 Nordeste 19 Nordeste 0 -- -- 72
2020-03-27 07:00:00 13 4 Nordeste 8 Este 0 -- -- 78
2020-03-27 06:00:00 13.4 0 Calma 6 Este 0 -- -- 81
2020-03-27 05:00:00 14.8 0 Calma 7 Sudeste 0 -- -- 77
2020-03-27 04:00:00 15.5 3 Sudeste 8 Sudeste 0 -- -- 74
2020-03-27 03:00:00 15.4 4 Sudeste 7 Este 0 -- -- 73
2020-03-27 02:00:00 15.3 6 Este 8 Este 0 -- -- 75
2020-03-27 01:00:00 15.5 0 Calma 8 Nordeste 0 -- -- 76
2020-03-27 00:00:00 15.8 6 Nordeste 25 Nordeste 0 -- -- 63
2020-03-26 23:00:00 15.8 5 Nordeste 18 Este 0 -- -- 65
2020-03-26 22:00:00 15.8 6 Nordeste 15 Norte 0 -- -- 63
2020-03-26 21:00:00 16 4 Este 10 Sudeste 0 -- -- 72
2020-03-26 20:00:00 16.8 2 Sur 13 Sudeste 0 -- -- 74
2020-03-26 19:00:00 18 8 Sur 14 Sudeste 0 -- -- 67
2020-03-26 18:00:00 19.8 6 Sur 19 Sudoeste 0 -- -- 62
2020-03-26 17:00:00 21 9 Sur 19 Sur 0 -- -- 60
2020-03-26 16:00:00 19.9 12 Sur 21 Sur 0 -- -- 65
2020-03-26 15:00:00 20.3 11 Sur 19 Sudeste 0 -- -- 66
2020-03-26 14:00:00 19.2 8 Sur 22 Sur 0 -- -- 62
2020-03-26 13:00:00 19.3 11 Sur 16 Sur 0 -- -- 62
2020-03-26 12:00:00 20.1 6 Sur 13 Sudoeste 0 -- -- 62
2020-03-26 11:00:00 20.1 8 Sur 19 Sur 0 -- -- 63
2020-03-26 10:00:00 19.2 6 Sur 12 Sur 0 -- -- 68
2020-03-26 09:00:00 17.3 6 Sur 10 Sudeste 0 -- -- 75
2020-03-26 08:00:00 14.2 2 Este 5 Sudeste 0 -- -- 90
2020-03-26 07:00:00 13.9 0 Calma 2 Este 0 -- -- 85
2020-03-26 06:00:00 15 0 Calma 7 Sur 0 -- -- 82
2020-03-26 05:00:00 15.4 4 Sudeste 8 Sudeste 0 -- -- 81
2020-03-26 04:00:00 15.2 0 Calma 5 Noroeste 0 -- -- 82
2020-03-26 03:00:00 15.6 0 Calma 4 Sur 0 -- -- 81
2020-03-26 02:00:00 16.1 3 Sudeste 7 Sudeste 0 -- -- 79
2020-03-26 01:00:00 16.2 3 Sur 9 Noroeste 0 -- -- 75
2020-03-26 00:00:00 16.3 5 Noroeste 10 Oeste 0 -- -- 73
2020-03-25 23:00:00 16.4 0 Calma 3 Oeste 0 -- -- 78
2020-03-25 22:00:00 16.7 0 Calma 6 Sudoeste 0 -- -- 76
2020-03-25 21:00:00 16.9 2 Sudoeste 9 Sur 0 -- -- 74
2020-03-25 20:00:00 17.1 2 Oeste 9 Sur 0 -- -- 72
2020-03-25 19:00:00 18 5 Sur 13 Noroeste 0 -- -- 64
2020-03-25 18:00:00 19.8 6 Oeste 15 Oeste 0 -- -- 56
2020-03-25 17:00:00 21.7 8 Noroeste 12 Noroeste 0 -- -- 56
2020-03-25 16:00:00 20.1 6 Oeste 13 Noroeste 0 -- -- 60
2020-03-25 15:00:00 19.6 6 Noroeste 12 Noroeste 0 -- -- 62
2020-03-25 14:00:00 18.8 3 Noroeste 8 Sudoeste 0 -- -- 66
2020-03-25 13:00:00 17.5 0 Calma 8 Sur 0 -- -- 76
2020-03-25 12:00:00 17 7 Sudeste 18 Sur 0 -- -- 77
2020-03-25 11:00:00 17.9 5 Sur 9 Sur 0 -- -- 70
2020-03-25 10:00:00 17.1 3 Sur 7 Sur 0 -- -- 74
2020-03-25 09:00:00 15.6 2 Sudeste 14 Sudeste 2 -- -- 88
2020-03-25 08:00:00 16 5 Sudeste 8 Sudeste 0 -- -- 77
2020-03-25 07:00:00 15.5 3 Sur 15 Sudeste 0 -- -- 74
2020-03-25 06:00:00 15.3 10 Este 20 Este 0 -- -- 63
2020-03-25 05:00:00 14.7 5 Este 12 Este 0 -- -- 64
2020-03-25 04:00:00 15.5 7 Este 25 Nordeste 0 -- -- 60
2020-03-25 03:00:00 16 10 Nordeste 18 Nordeste 0 -- -- 60
2020-03-25 02:00:00 16.6 8 Nordeste 24 Nordeste 0 -- -- 61
2020-03-25 01:00:00 16.6 6 Este 17 Nordeste 0 -- -- 59
2020-03-25 00:00:00 15.4 5 Nordeste 10 Este 0 -- -- 61
2020-03-24 23:00:00 15.9 8 Este 19 Nordeste 0 -- -- 60
2020-03-24 22:00:00 16.6 5 Este 28 Nordeste 0 -- -- 55
2020-03-24 21:00:00 17.1 14 Este 27 Nordeste 0 -- -- 53
2020-03-24 20:00:00 17.3 16 Este 37 Este 0 -- -- 53
2020-03-24 19:00:00 18.7 9 Nordeste 32 Nordeste 0 -- -- 47
2020-03-24 18:00:00 20 17 Nordeste 35 Nordeste 0 -- -- 47
2020-03-24 17:00:00 21.7 12 Nordeste 28 Norte 0 -- -- 44
2020-03-24 16:00:00 21.6 10 Sur 19 Sudoeste 0 -- -- 57
2020-03-24 15:00:00 21.9 10 Sur 20 Sur 0 -- -- 57
2020-03-24 14:00:00 22 13 Sur 21 Sur 0 -- -- 54
2020-03-24 13:00:00 22.3 12 Sur 20 Sur 0 -- -- 51
2020-03-24 12:00:00 21.9 7 Sur 15 Sur 0 -- -- 50
2020-03-24 11:00:00 21.4 6 Sur 13 Sudoeste 0 -- -- 53
2020-03-24 10:00:00 20.2 4 Sur 18 Este 0 -- -- 55
2020-03-24 09:00:00 18.5 4 Nordeste 23 Norte 0 -- -- 59
2020-03-24 08:00:00 15 4 Norte 11 Nordeste 0 -- -- 69
2020-03-24 07:00:00 15.4 6 Nordeste 23 Nordeste 0 -- -- 64
2020-03-24 06:00:00 16.1 14 Norte 35 Nordeste 0 -- -- 63
2020-03-24 05:00:00 16.3 14 Nordeste 33 Nordeste 0 -- -- 63
2020-03-24 04:00:00 16.3 15 Nordeste 29 Norte 0 -- -- 63
2020-03-24 03:00:00 16.2 14 Nordeste 35 Norte 0 -- -- 65
2020-03-24 02:00:00 16.3 14 Nordeste 39 Nordeste 0 -- -- 63
2020-03-24 01:00:00 16.6 10 Norte 32 Norte 0 -- -- 66
2020-03-24 00:00:00 16.7 13 Nordeste 28 Nordeste 0 -- -- 66
2020-03-23 23:00:00 16.4 10 Norte 39 Norte 0 -- -- 64
2020-03-23 22:00:00 16.3 16 Nordeste 37 Nordeste 0 -- -- 59
2020-03-23 21:00:00 16.5 12 Norte 30 Nordeste 0 -- -- 67
2020-03-23 20:00:00 17 13 Norte 39 Norte 0 -- -- 62
2020-03-23 19:00:00 18 15 Norte 36 Noroeste 0 -- -- 59
2020-03-23 18:00:00 18.8 13 Norte 26 Norte 0 -- -- 55
2020-03-23 17:00:00 19 8 Nordeste 36 Norte 0 -- -- 57
2020-03-23 16:00:00 18.7 11 Sudoeste 44 Norte 0 -- -- 56
2020-03-23 15:00:00 19 21 Nordeste 67 Nordeste 0 -- -- 57
2020-03-23 14:00:00 18.8 23 Nordeste 63 Nordeste 0 -- -- 63
2020-03-23 13:00:00 19 36 Nordeste 67 Nordeste 0 -- -- 57
2020-03-23 12:00:00 18.1 31 Nordeste 61 Nordeste 0 -- -- 60
2020-03-23 11:00:00 17.3 32 Nordeste 63 Nordeste 1.6 -- -- 65
2020-03-23 10:00:00 17.1 26 Nordeste 63 Nordeste 0.4 -- -- 70
2020-03-23 09:00:00 15.1 26 Nordeste 64 Nordeste 0.2 -- -- 77
2020-03-23 08:00:00 15 40 Norte 62 Norte 2.4 -- -- 67
2020-03-23 07:00:00 14.6 26 Norte 60 Nordeste 0.4 -- -- 71
2020-03-23 06:00:00 14.9 25 Norte 55 Nordeste 0 -- -- 65
2020-03-23 05:00:00 14.3 30 Norte 53 Nordeste 0.4 -- -- 70
2020-03-23 04:00:00 14.8 27 Norte 56 Nordeste 0 -- -- 69
2020-03-23 03:00:00 14.9 32 Nordeste 64 Nordeste 0.2 -- -- 71
2020-03-23 02:00:00 15.9 34 Norte 64 Norte 0 -- -- 62
2020-03-23 01:00:00 15.6 31 Nordeste 53 Norte 0 -- -- 60
2020-03-23 00:00:00 16 31 Norte 59 Nordeste 0 -- -- 67
2020-03-22 23:00:00 16 26 Norte 50 Nordeste 0 -- -- 64
2020-03-22 22:00:00 16 36 Norte 59 Nordeste 0.2 -- -- 66
2020-03-22 21:00:00 15.8 21 Norte 50 Norte 0 -- -- 63
2020-03-22 20:00:00 16.2 22 Norte 42 Norte 0 -- -- 63
2020-03-22 19:00:00 16.1 13 Nordeste 42 Nordeste 0 -- -- 64
2020-03-22 18:00:00 16.6 15 Norte 45 Nordeste 0 -- -- 76
2020-03-22 17:00:00 20.6 15 Norte 42 Nordeste 0 -- -- 55
2020-03-22 16:00:00 16.8 28 Norte 55 Noroeste 0 -- -- 76
2020-03-22 15:00:00 21.1 23 Norte 51 Noroeste 0 -- -- 58
2020-03-22 14:00:00 21.5 22 Norte 43 Norte 0 -- -- 56
2020-03-22 13:00:00 20.9 15 Noroeste 39 Nordeste 0 -- -- 55
2020-03-22 12:00:00 22.3 18 Noroeste 35 Norte 0 -- -- 44
2020-03-22 11:00:00 20.9 13 Norte 31 Nordeste 0 -- -- 49
2020-03-22 10:00:00 19.3 12 Norte 25 Norte 0 -- -- 52
2020-03-22 09:00:00 16.5 9 Norte 35 Norte 0 -- -- 61
2020-03-22 08:00:00 14.7 10 Nordeste 25 Norte 0 -- -- 65
2020-03-22 07:00:00 14.5 13 Norte 26 Norte 0 -- -- 69
2020-03-22 06:00:00 14.7 14 Nordeste 29 Nordeste 0 -- -- 63
2020-03-22 05:00:00 14.9 11 Nordeste 31 Norte 0 -- -- 65
2020-03-22 04:00:00 14.8 12 Norte 26 Norte 0 -- -- 61
2020-03-22 03:00:00 15.1 11 Nordeste 31 Nordeste 0 -- -- 62
2020-03-22 02:00:00 15 6 Norte 24 Norte 0 -- -- 61
2020-03-22 01:00:00 15.1 11 Nordeste 31 Norte 0 -- -- 56
2020-03-22 00:00:00 15.2 13 Nordeste 27 Nordeste 0 -- -- 56
2020-03-21 23:00:00 15.6 11 Nordeste 33 Norte 0 -- -- 55
2020-03-21 22:00:00 16.4 12 Nordeste 23 Nordeste 0 -- -- 58
2020-03-21 21:00:00 16.7 10 Norte 22 Nordeste 0 -- -- 58
2020-03-21 20:00:00 16.8 12 Nordeste 30 Este 0 -- -- 54
2020-03-21 19:00:00 18.4 14 Nordeste 26 Nordeste 0 -- -- 51
2020-03-21 18:00:00 19.5 9 Sudoeste 17 Sudeste 0 -- -- 51
2020-03-21 17:00:00 19.9 10 Sur 20 Sur 0 -- -- 49
2020-03-21 16:00:00 21.2 10 Sur 20 Sur 0 -- -- 45
2020-03-21 15:00:00 22 9 Sudoeste 21 Sur 0 -- -- 43
2020-03-21 14:00:00 22.9 10 Sudoeste 20 Sudoeste 0 -- -- 42
2020-03-21 13:00:00 22.3 10 Sur 22 Sur 0 -- -- 43
2020-03-21 12:00:00 22.2 10 Sudoeste 18 Oeste 0 -- -- 45
2020-03-21 11:00:00 21.2 10 Sudoeste 19 Este 0 -- -- 47
2020-03-21 10:00:00 19.6 8 Este 28 Este 0 -- -- 47
2020-03-21 09:00:00 17.8 13 Este 35 Nordeste 0 -- -- 53
2020-03-21 08:00:00 15.6 16 Este 33 Este 0 -- -- 57
2020-03-21 07:00:00 15.4 16 Este 33 Nordeste 0 -- -- 60
2020-03-21 06:00:00 15.6 17 Este 33 Nordeste 0 -- -- 62
2020-03-21 05:00:00 15.7 15 Este 28 Este 0 -- -- 60
2020-03-21 04:00:00 15.9 11 Este 24 Nordeste 0 -- -- 62
2020-03-21 03:00:00 15.6 9 Este 15 Este 0 -- -- 63
2020-03-21 02:00:00 15 5 Este 8 Sur 0 -- -- 82
2020-03-21 01:00:00 15.5 3 Sudeste 9 Sudeste 0 -- -- 80
2020-03-21 00:00:00 15.4 0 Calma 7 Sudeste 0 -- -- 77
2020-03-20 23:00:00 16 2 Este 8 Norte 0 -- -- 72
2020-03-20 22:00:00 16.9 3 Nordeste 23 Norte 0 -- -- 69
2020-03-20 21:00:00 17.6 4 Nordeste 24 Norte 0 -- -- 64
2020-03-20 20:00:00 18.4 7 Norte 21 Norte 0 -- -- 63
2020-03-20 19:00:00 19.9 10 Nordeste 27 Nordeste 0 -- -- 54
2020-03-20 18:00:00 21.7 11 Nordeste 34 Norte 0 -- -- 47
2020-03-20 17:00:00 22.9 17 Norte 37 Este 0 -- -- 45
2020-03-20 16:00:00 23.4 13 Nordeste 39 Nordeste 0 -- -- 39
2020-03-20 15:00:00 24 9 Sudoeste 17 Sur 0 -- -- 44
2020-03-20 14:00:00 22.8 10 Sudoeste 19 Sur 0 -- -- 54
2020-03-20 13:00:00 22.4 13 Sur 21 Sudeste 0 -- -- 54
2020-03-20 12:00:00 22.4 12 Sudoeste 18 Sudoeste 0 -- -- 55
2020-03-20 11:00:00 21.1 9 Sur 16 Sur 0 -- -- 60
2020-03-20 10:00:00 20.4 8 Sur 15 Sur 0 -- -- 61
2020-03-20 09:00:00 18.8 6 Sudoeste 14 Oeste 0 -- -- 67
2020-03-20 08:00:00 15.6 4 Sudeste 12 Este 0 -- -- 77
2020-03-20 07:00:00 16.9 12 Este 38 Este 0 -- -- 71
2020-03-20 06:00:00 16.4 11 Este 30 Norte 0 -- -- 67
2020-03-20 05:00:00 15.5 6 Este 15 Nordeste 0 -- -- 74
2020-03-20 04:00:00 15.7 4 Este 12 Este 0 -- -- 72
2020-03-20 03:00:00 16.9 8 Nordeste 30 Nordeste 0 -- -- 65
2020-03-20 02:00:00 16.5 4 Este 14 Este 0 -- -- 66
2020-03-20 01:00:00 18 8 Este 42 Nordeste 0 -- -- 58
2020-03-20 00:00:00 18.1 13 Este 41 Norte 0 -- -- 57
2020-03-19 23:00:00 18.5 18 Nordeste 47 Nordeste 0 -- -- 59
2020-03-19 22:00:00 18.4 20 Nordeste 41 Nordeste 0 -- -- 59
2020-03-19 21:00:00 18.4 15 Norte 39 Norte 0 -- -- 58
2020-03-19 20:00:00 18.6 19 Nordeste 43 Nordeste 0 -- -- 57
2020-03-19 19:00:00 19.8 9 Nordeste 40 Norte 0 -- -- 54
2020-03-19 18:00:00 21.2 15 Nordeste 32 Norte 0 -- -- 52
2020-03-19 17:00:00 21.1 14 Nordeste 33 Nordeste 0 -- -- 54
2020-03-19 16:00:00 20.9 14 Norte 31 Norte 0 -- -- 58
2020-03-19 15:00:00 20.2 14 Norte 35 Noroeste 0 -- -- 65
2020-03-19 14:00:00 21.6 9 Nordeste 32 Nordeste 0 -- -- 55
2020-03-19 13:00:00 21.4 15 Norte 46 Norte 0 -- -- 53
2020-03-19 12:00:00 21.3 15 Norte 32 Norte 0 -- -- 57
2020-03-19 11:00:00 20.8 12 Norte 31 Norte 0 -- -- 57
2020-03-19 10:00:00 18.7 15 Norte 39 Nordeste 0 -- -- 64
2020-03-19 09:00:00 17.9 18 Norte 35 Noroeste 0 -- -- 69
2020-03-19 08:00:00 17.7 10 Norte 48 Este 0 -- -- 61
2020-03-19 07:00:00 17.3 9 Norte 28 Este 0 -- -- 62
2020-03-19 06:00:00 17 10 Nordeste 31 Norte 0 -- -- 68
2020-03-19 05:00:00 16.8 13 Norte 28 Norte 0 -- -- 69
2020-03-19 04:00:00 16.4 13 Norte 42 Norte 0 -- -- 71
2020-03-19 03:00:00 16.6 14 Norte 30 Noroeste 0 -- -- 68
2020-03-19 02:00:00 16.5 14 Norte 28 Noroeste 0 -- -- 64
2020-03-19 01:00:00 16 10 Norte 31 Norte 0 -- -- 60
2020-03-19 00:00:00 16.4 9 Norte 29 Noroeste 0 -- -- 59
2020-03-18 23:00:00 16.4 7 Norte 30 Norte 0 -- -- 61
2020-03-18 22:00:00 16.7 14 Nordeste 39 Norte 0 -- -- 55
2020-03-18 21:00:00 16.9 9 Norte 38 Nordeste 0 -- -- 61
2020-03-18 20:00:00 17.6 12 Norte 33 Nordeste 0 -- -- 55
2020-03-18 19:00:00 18.4 10 Este 31 Este 0 -- -- 47
2020-03-18 18:00:00 20.1 12 Nordeste 39 Norte 0 -- -- 47
2020-03-18 17:00:00 21.4 19 Norte 48 Norte 0 -- -- 43
2020-03-18 16:00:00 22.1 13 Nordeste 42 Norte 0 -- -- 41
2020-03-18 15:00:00 22.3 23 Nordeste 45 Nordeste 0 -- -- 43
2020-03-18 14:00:00 22.6 12 Nordeste 44 Nordeste 0 -- -- 40
2020-03-18 13:00:00 23.1 14 Nordeste 39 Nordeste 0 -- -- 41
2020-03-18 12:00:00 21.7 9 Sudoeste 22 Sudoeste 0 -- -- 49
2020-03-18 11:00:00 20.3 8 Sur 32 Norte 0 -- -- 54
2020-03-18 10:00:00 18.9 14 Nordeste 31 Nordeste 0 -- -- 54
2020-03-18 09:00:00 16.1 10 Nordeste 28 Nordeste 0 -- -- 63
2020-03-18 08:00:00 15.4 4 Este 26 Sudoeste 0 -- -- 69
2020-03-18 07:00:00 15.1 11 Este 32 Este 0 -- -- 70
2020-03-18 06:00:00 15.2 8 Este 21 Este 0 -- -- 62
2020-03-18 05:00:00 15.4 9 Sudeste 30 Nordeste 0 -- -- 68
2020-03-18 04:00:00 14.4 3 Sudeste 8 Este 0 -- -- 77
2020-03-18 03:00:00 14.1 4 Norte 9 Norte 0 -- -- 75
2020-03-18 02:00:00 14.5 5 Norte 12 Noroeste 0 -- -- 75
2020-03-18 01:00:00 14.6 6 Sudeste 14 Sudeste 0 -- -- 74
2020-03-18 00:00:00 14.9 4 Sur 8 Sudeste 0 -- -- 73
2020-03-17 23:00:00 15.9 4 Sudeste 14 Sudoeste 0 -- -- 70
2020-03-17 22:00:00 16 2 Este 13 Oeste 0 -- -- 69
2020-03-17 21:00:00 16.6 8 Sur 13 Sur 0 -- -- 67
2020-03-17 20:00:00 17.3 4 Este 11 Sudeste 0 -- -- 63
2020-03-17 19:00:00 18.3 7 Sur 16 Sur 0 -- -- 61
2020-03-17 18:00:00 19.8 11 Noroeste 19 Noroeste 0 -- -- 56
2020-03-17 17:00:00 20.8 8 Sur 17 Sudoeste 0 -- -- 51
2020-03-17 16:00:00 22.2 10 Sudoeste 19 Sudoeste 0 -- -- 47
2020-03-17 15:00:00 24.1 8 Oeste 24 Oeste 0 -- -- 42
2020-03-17 14:00:00 23.9 11 Oeste 23 Oeste 0 -- -- 42
2020-03-17 13:00:00 22.2 14 Sudoeste 24 Sudoeste 0 -- -- 45
2020-03-17 12:00:00 22 7 Sudoeste 21 Oeste 0 -- -- 46
2020-03-17 11:00:00 19.7 5 Sudoeste 21 Noroeste 0 -- -- 51
2020-03-17 10:00:00 17.9 10 Norte 20 Norte 0 -- -- 57
2020-03-17 09:00:00 16.3 14 Norte 24 Norte 0 -- -- 63
2020-03-17 08:00:00 15.5 9 Nordeste 31 Norte 0 -- -- 63
2020-03-17 07:00:00 13.7 5 Nordeste 12 Norte 0 -- -- 69
2020-03-17 06:00:00 13.8 3 Noroeste 12 Este 0 -- -- 68
2020-03-17 05:00:00 15.3 6 Sudeste 18 Este 0 -- -- 61
2020-03-17 04:00:00 15 6 Nordeste 13 Nordeste 0 -- -- 66
2020-03-17 03:00:00 15.7 6 Nordeste 14 Nordeste 0 -- -- 65
2020-03-17 02:00:00 15.8 7 Norte 13 Norte 0 -- -- 64
2020-03-17 01:00:00 15.7 4 Este 11 Nordeste 0 -- -- 68
2020-03-17 00:00:00 16.2 3 Sudoeste 11 Sudoeste 0 -- -- 68
2020-03-16 23:00:00 16.7 4 Este 26 Nordeste 0 -- -- 60
2020-03-16 22:00:00 16.4 7 Este 10 Nordeste 0 -- -- 67
2020-03-16 21:00:00 17.3 2 Sudeste 21 Sudoeste 0 -- -- 66
2020-03-16 20:00:00 18.1 4 Sudoeste 22 Este 0 -- -- 64
2020-03-16 19:00:00 19.7 9 Este 25 Nordeste 0 -- -- 52
2020-03-16 18:00:00 21.5 7 Sudeste 26 Nordeste 0 -- -- 48
2020-03-16 17:00:00 23.6 8 Sur 22 Oeste 0 -- -- 43
2020-03-16 16:00:00 23.1 9 Oeste 37 Sudoeste 0 -- -- 45
2020-03-16 15:00:00 24.1 8 Sudoeste 21 Sudoeste 0 -- -- 37
2020-03-16 14:00:00 24.3 13 Sudoeste 20 Oeste 0 -- -- 37
2020-03-16 13:00:00 23.4 12 Sudoeste 22 Sudoeste 0 -- -- 44
2020-03-16 12:00:00 21.9 10 Sur 43 Sudeste 0 -- -- 49
2020-03-16 11:00:00 21.5 13 Sudoeste 26 Sudeste 0 -- -- 50
2020-03-16 10:00:00 20.4 8 Sudoeste 25 Nordeste 0 -- -- 51
2020-03-16 09:00:00 17.1 9 Norte 33 Norte 0 -- -- 57
2020-03-16 08:00:00 16.8 9 Nordeste 27 Este 0 -- -- 62
2020-03-16 07:00:00 16.4 7 Norte 21 Norte 0 -- -- 60
2020-03-16 06:00:00 16.7 5 Norte 20 Noroeste 0 -- -- 69
2020-03-16 05:00:00 16.5 5 Oeste 15 Noroeste 0 -- -- 68
2020-03-16 04:00:00 16.6 11 Noroeste 22 Norte 0 -- -- 69
2020-03-16 03:00:00 16.6 8 Norte 19 Noroeste 0 -- -- 68
2020-03-16 02:00:00 16.8 3 Norte 15 Noroeste 0 -- -- 72
2020-03-16 01:00:00 17.1 7 Oeste 17 Sur 0 -- -- 68
2020-03-16 00:00:00 17 0 Calma 17 Noroeste 0 -- -- 65
2020-03-15 23:00:00 17.1 7 Noroeste 17 Oeste 0 -- -- 65
2020-03-15 22:00:00 17.4 9 Sudeste 30 Este 0 -- -- 61
2020-03-15 21:00:00 18 19 Nordeste 37 Nordeste 0 -- -- 55
2020-03-15 20:00:00 18 9 Noroeste 23 Este 0 -- -- 58
2020-03-15 19:00:00 19 12 Nordeste 44 Nordeste 0 -- -- 51
2020-03-15 18:00:00 20.2 7 Nordeste 36 Norte 0 -- -- 49
2020-03-15 17:00:00 22.6 4 Oeste 32 Este 0 -- -- 44
2020-03-15 16:00:00 22.5 12 Este 37 Este 0 -- -- 42
2020-03-15 15:00:00 23 12 Nordeste 30 Nordeste 0 -- -- 41
2020-03-15 14:00:00 22.9 16 Nordeste 35 Nordeste 0 -- -- 41
2020-03-15 13:00:00 22.1 13 Nordeste 30 Este 0 -- -- 46
2020-03-15 12:00:00 21.1 8 Sudoeste 23 Sudeste 0 -- -- 53
2020-03-15 11:00:00 21.4 8 Sudoeste 24 Sudeste 0 -- -- 51
2020-03-15 10:00:00 20.5 8 Este 26 Nordeste 0 -- -- 48
2020-03-15 09:00:00 17.3 4 Nordeste 10 Norte 0 -- -- 62
2020-03-15 08:00:00 14.4 0 Calma 20 Norte 0 -- -- 72
2020-03-15 07:00:00 13.9 7 Norte 15 Noroeste 0 -- -- 69
2020-03-15 06:00:00 13.8 3 Sudeste 10 Este 0 -- -- 74
2020-03-15 05:00:00 14.8 4 Este 14 Este 0 -- -- 68
2020-03-15 04:00:00 15.4 6 Nordeste 19 Este 0 -- -- 60
2020-03-15 03:00:00 15.3 9 Este 21 Nordeste 0 -- -- 64
2020-03-15 02:00:00 15.6 6 Este 26 Nordeste 0 -- -- 66
2020-03-15 01:00:00 16.2 12 Nordeste 28 Norte 0 -- -- 57
2020-03-15 00:00:00 16.4 8 Nordeste 24 Este 0 -- -- 52
2020-03-14 23:00:00 16.6 9 Este 28 Este 0 -- -- 60
2020-03-14 22:00:00 16.7 13 Este 28 Este 0 -- -- 58
2020-03-14 21:00:00 16.3 3 Este 9 Este 0 -- -- 77
2020-03-14 20:00:00 17.3 3 Sur 12 Sudoeste 0 -- -- 78
2020-03-14 19:00:00 18.4 6 Sur 15 Sur 0 -- -- 75
2020-03-14 18:00:00 19.9 5 Sur 22 Sudoeste 0 -- -- 68
2020-03-14 17:00:00 22.2 15 Sudoeste 24 Oeste 0 -- -- 58
2020-03-14 16:00:00 21.8 8 Oeste 15 Oeste 0 -- -- 64
2020-03-14 15:00:00 20.7 10 Sudoeste 21 Sudoeste 0 -- -- 66
2020-03-14 14:00:00 21.2 14 Oeste 24 Sudoeste 0 -- -- 64
2020-03-14 13:00:00 21.2 10 Sur 16 Sudeste 0 -- -- 64
2020-03-14 12:00:00 20.6 10 Sur 15 Sur 0 -- -- 69
2020-03-14 11:00:00 19.5 6 Sudoeste 12 Sudoeste 0 -- -- 71
2020-03-14 10:00:00 19.5 6 Sur 12 Sur 0 -- -- 76
2020-03-14 09:00:00 17.6 3 Sur 8 Sur 0 -- -- 84
2020-03-14 08:00:00 15 5 Este 10 Sudeste 0 -- -- 93
2020-03-14 07:00:00 14.8 7 Sudeste 11 Sudeste 0 -- -- 92
2020-03-14 06:00:00 14.7 5 Sudeste 10 Sudeste 0 -- -- 90
2020-03-14 05:00:00 15.2 7 Sudeste 10 Este 0 -- -- 92
2020-03-14 04:00:00 15.3 6 Sudeste 9 Sudeste 0 -- -- 91
2020-03-14 03:00:00 16 6 Sudeste 13 Sudeste 0 -- -- 91
2020-03-14 02:00:00 16.1 7 Sudeste 13 Sudeste 0 -- -- 92
2020-03-14 01:00:00 16 6 Sudeste 9 Sudeste 0 -- -- 91
2020-03-14 00:00:00 15.7 5 Sudeste 7 Sudeste 0 -- -- 88
2020-03-13 23:00:00 15.9 4 Sudeste 6 Sudeste 0 -- -- 86
2020-03-13 22:00:00 16.7 3 Sudeste 8 Sur 0 -- -- 85
2020-03-13 21:00:00 17.6 4 Sur 11 Sur 0 -- -- 87
2020-03-13 20:00:00 17.9 6 Sur 11 Sur 0 -- -- 84
2020-03-13 19:00:00 18.8 4 Sur 8 Sur 0 -- -- 82
2020-03-13 18:00:00 19.7 5 Sur 13 Sur 0 -- -- 77
2020-03-13 17:00:00 20.4 12 Sur 21 Sur 0 -- -- 74
2020-03-13 16:00:00 21.2 11 Sur 17 Sur 0 -- -- 71
2020-03-13 15:00:00 21.8 9 Sudoeste 13 Sur 0 -- -- 66
2020-03-13 14:00:00 22.2 5 Sudoeste 13 Sur 0 -- -- 64
2020-03-13 13:00:00 21.5 9 Sur 22 Sudeste 0 -- -- 64
2020-03-13 12:00:00 22.5 10 Sudeste 25 Sudeste 0 -- -- 62
2020-03-13 11:00:00 22.5 17 Sudeste 26 Sur 0 -- -- 56
2020-03-13 10:00:00 20.9 9 Sur 15 Sur 0 -- -- 65
2020-03-13 09:00:00 19.3 3 Nordeste 5 Nordeste 0 -- -- 65
2020-03-13 08:00:00 16.7 2 Noroeste 12 Este 0 -- -- 70
2020-03-13 07:00:00 17 8 Sudeste 15 Sudeste 0 -- -- 66
2020-03-13 06:00:00 17.2 10 Sudeste 14 Sudeste 0 -- -- 58
2020-03-13 05:00:00 14.5 4 Sudeste 7 Este 0 -- -- 62
2020-03-13 04:00:00 15 5 Norte 9 Nordeste 0 -- -- 78
2020-03-13 03:00:00 15.3 0 Calma 6 Este 0 -- -- 70
2020-03-13 02:00:00 15.6 0 Calma 6 Nordeste 0 -- -- 65
2020-03-13 01:00:00 16.6 0 Calma 6 Este 0 -- -- 60
2020-03-13 00:00:00 16.9 4 Sudeste 6 Sudeste 0 -- -- 60
2020-03-12 23:00:00 16.8 0 Calma 7 Norte 0 -- -- 64
2020-03-12 22:00:00 17.5 3 Sudeste 6 Sudeste 0 -- -- 65
2020-03-12 21:00:00 18.3 0 Calma 4 Nordeste 0 -- -- 62
2020-03-12 20:00:00 19.8 2 Sudeste 5 Este 0 -- -- 56
2020-03-12 19:00:00 22.2 3 Sur 6 Sudoeste 0 -- -- 49
2020-03-12 18:00:00 23.6 4 Sur 10 Sudoeste 0 -- -- 41
2020-03-12 17:00:00 24.7 6 Sudoeste 10 Sudoeste 0 -- -- 42
2020-03-12 16:00:00 24.9 6 Sudoeste 13 Sur 0 -- -- 39
2020-03-12 15:00:00 25.5 7 Sur 12 Sur 0 -- -- 47
2020-03-12 14:00:00 26.3 6 Sudoeste 11 Oeste 0 -- -- 37
2020-03-12 13:00:00 25.7 5 Sudoeste 14 Sudoeste 0 -- -- 40
2020-03-12 12:00:00 23.9 7 Sur 14 Sur 0 -- -- 50
2020-03-12 11:00:00 24.4 6 Sudoeste 13 Sur 0 -- -- 52
2020-03-12 10:00:00 23.7 6 Sur 10 Sur 0 -- -- 42
2020-03-12 09:00:00 18.4 6 Sur 12 Sudeste 0 -- -- 85
2020-03-12 08:00:00 16.8 9 Noroeste 20 Norte 0 -- -- 92
2020-03-12 07:00:00 17 13 Norte 22 Noroeste 0 -- -- 93
2020-03-12 06:00:00 16.5 6 Nordeste 15 Sudeste 0 -- -- 79
2020-03-12 05:00:00 17.6 14 Sur 19 Sur 0 -- -- 82
2020-03-12 04:00:00 16.2 2 Sudeste 7 Nordeste 0 -- -- 30
2020-03-12 03:00:00 16.3 5 Nordeste 7 Nordeste 0 -- -- 30
2020-03-12 02:00:00 18.4 3 Sudeste 6 Sudeste 0 -- -- 26
2020-03-12 01:00:00 16.7 2 Noroeste 11 Este 0 -- -- 31
2020-03-12 00:00:00 15.7 2 Nordeste 11 Norte 0 -- -- 40
2020-03-11 23:00:00 16.3 4 Sudeste 6 Sudeste 0 -- -- 57
2020-03-11 22:00:00 16.8 0 Calma 6 Nordeste 0 -- -- 55
2020-03-11 21:00:00 17.9 0 Calma 7 Nordeste 0 -- -- 55
2020-03-11 20:00:00 19.5 4 Norte 7 Nordeste 0 -- -- 53
2020-03-11 19:00:00 22.5 0 Calma 8 Noroeste 0 -- -- 54
2020-03-11 18:00:00 24 4 Noroeste 9 Oeste 0 -- -- 59
2020-03-11 17:00:00 24.6 6 Noroeste 19 Noroeste 0 -- -- 61
2020-03-11 16:00:00 25.4 11 Noroeste 20 Noroeste 0 -- -- 60
2020-03-11 15:00:00 25.3 6 Oeste 15 Sur 0 -- -- 60
2020-03-11 14:00:00 21.9 12 Sur 21 Sudoeste 0 -- -- 73
2020-03-11 13:00:00 22.8 10 Sur 15 Sur 0 -- -- 67
2020-03-11 12:00:00 24.2 6 Sudoeste 9 Sur 0 -- -- 51
2020-03-11 11:00:00 22.7 3 Oeste 9 Oeste 0 -- -- 68
2020-03-11 10:00:00 20 3 Noroeste 9 Noroeste 0 -- -- 83
2020-03-11 09:00:00 18.1 5 Noroeste 9 Noroeste 0 -- -- 84
2020-03-11 08:00:00 15.3 2 Noroeste 5 Oeste 0 -- -- 87
2020-03-11 07:00:00 15.3 4 Norte 8 Sudeste 0 -- -- 75
2020-03-11 06:00:00 16.6 6 Sudeste 10 Sudeste 0 -- -- 73
2020-03-11 05:00:00 16.8 8 Sudeste 12 Sudeste 0 -- -- 61
2020-03-11 04:00:00 15.9 4 Sudeste 10 Nordeste 0 -- -- 50
2020-03-11 03:00:00 15.5 10 Nordeste 13 Nordeste 0 -- -- 50
2020-03-11 02:00:00 15.6 4 Nordeste 16 Sudeste 0 -- -- 57
2020-03-11 01:00:00 16.6 9 Sudeste 12 Sur 0 -- -- 78
2020-03-11 00:00:00 15.4 3 Sudeste 8 Norte 0 -- -- 60
2020-03-10 23:00:00 16.4 0 Calma 11 Nordeste 0 -- -- 66
2020-03-10 22:00:00 17.8 8 Sudeste 13 Sur 0 -- -- 71
2020-03-10 21:00:00 18.7 4 Sudeste 8 Este 0 -- -- 69
2020-03-10 20:00:00 20.2 5 Sudeste 8 Sudeste 0 -- -- 53
2020-03-10 19:00:00 22.4 0 Calma 9 Sur 0 -- -- 51
2020-03-10 18:00:00 24.7 4 Sudoeste 9 Oeste 0 -- -- 45
2020-03-10 17:00:00 24.8 2 Noroeste 8 Oeste 0 -- -- 45
2020-03-10 16:00:00 24.6 5 Oeste 14 Noroeste 0 -- -- 48
2020-03-10 15:00:00 24.4 9 Noroeste 14 Noroeste 0 -- -- 63
2020-03-10 14:00:00 25.7 9 Noroeste 18 Noroeste 0 -- -- 60
2020-03-10 13:00:00 25.7 9 Oeste 15 Oeste 0 -- -- 60
2020-03-10 12:00:00 25 6 Oeste 14 Oeste 0 -- -- 59
2020-03-10 11:00:00 24.5 7 Noroeste 13 Noroeste 0 -- -- 62
2020-03-10 10:00:00 23.4 7 Oeste 12 Sudeste 0 -- -- 62
2020-03-10 09:00:00 21.8 7 Sur 15 Sur 0 -- -- 45
2020-03-10 08:00:00 19.3 10 Sudeste 13 Sudeste 0 -- -- 39
2020-03-10 07:00:00 18.5 4 Sudeste 15 Este 0 -- -- 32
2020-03-10 06:00:00 18.8 3 Este 10 Nordeste 0 -- -- 26
2020-03-10 05:00:00 16.9 2 Nordeste 8 Este 0 -- -- 35
2020-03-10 04:00:00 18.5 6 Sudeste 10 Sudeste 0 -- -- 35
2020-03-10 03:00:00 18 3 Sudeste 9 Norte 0 -- -- 30
2020-03-10 02:00:00 19 3 Este 10 Este 0 -- -- 29
2020-03-10 01:00:00 18.6 3 Este 9 Este 0 -- -- 30
2020-03-10 00:00:00 17.8 2 Norte 6 Oeste 0 -- -- 42
2020-03-09 23:00:00 18.9 2 Este 16 Este 0 -- -- 42
2020-03-09 22:00:00 19.1 6 Este 10 Este 0 -- -- 41
2020-03-09 21:00:00 19.3 3 Sudeste 5 Este 0 -- -- 50
2020-03-09 20:00:00 20.8 2 Norte 7 Norte 0 -- -- 46
2020-03-09 19:00:00 23.1 3 Norte 10 Sudoeste 0 -- -- 43
2020-03-09 18:00:00 24.8 4 Sudoeste 14 Sudoeste 0 -- -- 37
2020-03-09 17:00:00 25.9 6 Sudoeste 19 Sur 0 -- -- 36
2020-03-09 16:00:00 26.6 9 Sur 19 Sur 0 -- -- 35
2020-03-09 15:00:00 27.1 11 Sudoeste 20 Sudoeste 0 -- -- 36
2020-03-09 14:00:00 26.2 9 Sudoeste 27 Sur 0 -- -- 41
2020-03-09 13:00:00 26.5 11 Sur 17 Sur 0 -- -- 35
2020-03-09 12:00:00 26.1 8 Sudoeste 14 Sudoeste 0 -- -- 37
2020-03-09 11:00:00 25.4 7 Sur 13 Sur 0 -- -- 37
2020-03-09 10:00:00 23.9 5 Sur 9 Sur 0 -- -- 42
2020-03-09 09:00:00 21.1 5 Sur 9 Este 0 -- -- 50
2020-03-09 08:00:00 18.7 6 Sudeste 20 Sur 0 -- -- 57
2020-03-09 07:00:00 19.7 12 Sudeste 18 Sur 0 -- -- 56
2020-03-09 06:00:00 22.2 12 Sudeste 27 Este 0 -- -- 39
2020-03-09 05:00:00 24.5 21 Este 36 Este 0 -- -- 15
2020-03-09 04:00:00 24.3 21 Nordeste 40 Nordeste 0 -- -- 17
2020-03-09 03:00:00 23.8 17 Este 29 Este 0 -- -- 18
2020-03-09 02:00:00 19.9 4 Sudeste 12 Este 0 -- -- 25
2020-03-09 01:00:00 19.9 8 Este 15 Nordeste 0 -- -- 27
2020-03-09 00:00:00 17.2 5 Este 9 Este 0 -- -- 40
2020-03-08 23:00:00 17.7 5 Sudeste 9 Este 0 -- -- 53
2020-03-08 22:00:00 17.2 0 Calma 3 Este 0 -- -- 59
2020-03-08 21:00:00 18.3 0 Calma 5 Nordeste 0 -- -- 58
2020-03-08 20:00:00 20.3 5 Sudeste 9 Sudeste 0 -- -- 51
2020-03-08 19:00:00 22.6 5 Sur 12 Sur 0 -- -- 44
2020-03-08 18:00:00 24.3 5 Sur 16 Sur 0 -- -- 43
2020-03-08 17:00:00 24.8 9 Sur 17 Sur 0 -- -- 40
2020-03-08 16:00:00 24.9 10 Sur 22 Sudoeste 0 -- -- 46
2020-03-08 15:00:00 24.6 8 Sudoeste 17 Sudoeste 0 -- -- 50
2020-03-08 14:00:00 23.3 9 Sudoeste 18 Sur 0 -- -- 61
2020-03-08 13:00:00 23.7 8 Sudoeste 15 Sudoeste 0 -- -- 60
2020-03-08 12:00:00 22.8 6 Oeste 12 Sudoeste 0 -- -- 56
2020-03-08 11:00:00 21.4 6 Sur 13 Sudoeste 0 -- -- 66
2020-03-08 10:00:00 20.5 6 Sudoeste 9 Sur 0 -- -- 70
2020-03-08 09:00:00 17.9 3 Sudoeste 16 Sudeste 0 -- -- 74
2020-03-08 08:00:00 14.7 10 Sudeste 15 Sudeste 0 -- -- 88
2020-03-08 07:00:00 14.6 6 Norte 12 Norte 0 -- -- 92
2020-03-08 06:00:00 13.7 6 Nordeste 9 Nordeste 0 -- -- 88
2020-03-08 05:00:00 14.1 3 Este 9 Sudeste 0 -- -- 86
2020-03-08 04:00:00 14.9 6 Sudeste 13 Sudeste 0 -- -- 84
2020-03-08 03:00:00 14.1 4 Sudeste 8 Sudeste 0 -- -- 86
2020-03-08 02:00:00 14.5 5 Sudeste 10 Este 0 -- -- 83
2020-03-08 01:00:00 14.7 7 Este 12 Sudeste 0 -- -- 83
2020-03-08 00:00:00 14.2 2 Este 4 Este 0 -- -- 87
2020-03-07 23:00:00 14.5 2 Nordeste 3 Este 0 -- -- 83
2020-03-07 22:00:00 15.2 0 Calma 4 Sur 0 -- -- 82
2020-03-07 21:00:00 16 0 Calma 4 Sudoeste 0 -- -- 78
2020-03-07 20:00:00 17.1 2 Sur 9 Sur 0 -- -- 75
2020-03-07 19:00:00 18.3 8 Sur 12 Sudoeste 0 -- -- 72
2020-03-07 18:00:00 20.2 6 Sudoeste 12 Sudoeste 0 -- -- 64
2020-03-07 17:00:00 21.6 8 Sur 19 Sudoeste 0 -- -- 60
2020-03-07 16:00:00 22.2 9 Sudoeste 18 Sudoeste 0 -- -- 57
2020-03-07 15:00:00 22.7 10 Sudoeste 15 Sudoeste 0 -- -- 56
2020-03-07 14:00:00 22 10 Sudoeste 17 Sudoeste 0 -- -- 57
2020-03-07 13:00:00 22.3 9 Sudoeste 15 Sudoeste 0 -- -- 57
2020-03-07 12:00:00 22.9 8 Oeste 14 Oeste 0 -- -- 56
2020-03-07 11:00:00 21.8 8 Sudoeste 12 Sudoeste 0 -- -- 60
2020-03-07 10:00:00 19.7 5 Sudoeste 10 Sudoeste 0 -- -- 65
2020-03-07 09:00:00 16.9 4 Sudoeste 6 Este 0 -- -- 76
2020-03-07 08:00:00 13.5 5 Este 8 Este 0 -- -- 89
2020-03-07 07:00:00 13.6 5 Este 9 Este 0 -- -- 88
2020-03-07 06:00:00 13.8 8 Este 10 Este 0 -- -- 87
2020-03-07 05:00:00 13.5 5 Este 8 Este 0 -- -- 89
2020-03-07 04:00:00 13.8 4 Este 6 Sudeste 0 -- -- 87
2020-03-07 03:00:00 14.2 5 Sudeste 8 Sudeste 0 -- -- 85
2020-03-07 02:00:00 14.5 5 Este 8 Este 0 -- -- 84
2020-03-07 01:00:00 14.6 3 Sudeste 7 Sudeste 0 -- -- 84
2020-03-07 00:00:00 15.2 0 Calma 5 Este 0 -- -- 82
2020-03-06 23:00:00 16.4 0 Calma 10 Sudeste 0 -- -- 79
2020-03-06 22:00:00 17.5 4 Sudoeste 15 Oeste 0 -- -- 75
2020-03-06 21:00:00 17.7 6 Sudoeste 11 Oeste 0 -- -- 76
2020-03-06 20:00:00 17.9 4 Sudoeste 13 Sudoeste 0 -- -- 77
2020-03-06 19:00:00 18.6 7 Sur 15 Sur 0 -- -- 72
2020-03-06 18:00:00 19.9 10 Sur 21 Sudoeste 0 -- -- 67
2020-03-06 17:00:00 21.2 12 Sur 20 Sudoeste 0 -- -- 63
2020-03-06 16:00:00 22.3 10 Sur 15 Sudoeste 0 -- -- 59
2020-03-06 15:00:00 23.4 9 Sur 18 Oeste 0 -- -- 57
2020-03-06 14:00:00 23.4 11 Sudoeste 23 Sudoeste 0 -- -- 60
2020-03-06 13:00:00 23.6 10 Oeste 15 Oeste 0 -- -- 60
2020-03-06 12:00:00 22.3 8 Sudoeste 13 Sur 0 -- -- 65
2020-03-06 11:00:00 20.6 10 Sur 14 Sur 0 -- -- 73
2020-03-06 10:00:00 20.3 6 Este 24 Este 0 -- -- 65
2020-03-06 09:00:00 18.3 9 Sudeste 24 Este 0 -- -- 71
2020-03-06 08:00:00 15.5 6 Sudeste 15 Sudeste 0 -- -- 88
2020-03-06 07:00:00 15.2 8 Sudeste 11 Sudeste 0 -- -- 90
2020-03-06 06:00:00 15 3 Nordeste 6 Nordeste 0 -- -- 93
2020-03-06 05:00:00 16.2 3 Sudeste 13 Sur 0 -- -- 89
2020-03-06 04:00:00 16.4 2 Nordeste 9 Oeste 0 -- -- 91
2020-03-06 03:00:00 16.8 4 Sudoeste 9 Sudoeste 0 -- -- 93
2020-03-06 02:00:00 16.6 3 Oeste 9 Sudeste 0 -- -- 91
2020-03-06 01:00:00 16.8 4 Oeste 11 Sur 0 -- -- 90
2020-03-06 00:00:00 17.1 7 Sur 15 Sur 0 -- -- 90
2020-03-05 23:00:00 17.1 5 Sudeste 11 Sudoeste 0 -- -- 86
2020-03-05 22:00:00 17.4 5 Sur 9 Sur 0 -- -- 89
2020-03-05 21:00:00 17.8 4 Sur 12 Sudoeste 0 -- -- 85
2020-03-05 20:00:00 18.2 6 Sur 12 Sudeste 0 -- -- 84
2020-03-05 19:00:00 19.3 7 Sur 12 Sur 0 -- -- 81
2020-03-05 18:00:00 21 8 Sudoeste 13 Sur 0 -- -- 74
2020-03-05 17:00:00 21.8 8 Sudoeste 17 Sur 0 -- -- 69
2020-03-05 16:00:00 23.4 9 Sur 18 Sudoeste 0 -- -- 62
2020-03-05 15:00:00 23 13 Sur 17 Sur 0 -- -- 62
2020-03-05 14:00:00 23.2 8 Sur 15 Sudoeste 0 -- -- 61
2020-03-05 13:00:00 23.7 6 Sudoeste 13 Sudoeste 0 -- -- 65
2020-03-05 12:00:00 22.1 7 Sur 13 Sudeste 0 -- -- 74
2020-03-05 11:00:00 21.2 11 Sur 15 Sur 0 -- -- 75
2020-03-05 10:00:00 21.5 4 Sudoeste 13 Noroeste 0 -- -- 77
2020-03-05 09:00:00 18.8 7 Noroeste 12 Noroeste 0 -- -- 87
2020-03-05 08:00:00 15.7 0 Calma 6 Sudeste 0 -- -- 95
2020-03-05 07:00:00 16.3 3 Sudeste 10 Sudeste 0 -- -- 91
2020-03-05 06:00:00 17.4 9 Sudeste 15 Sur 0 -- -- 94
2020-03-05 05:00:00 17.5 7 Sudeste 22 Sudeste 0 -- -- 90
2020-03-05 04:00:00 18.1 8 Sur 17 Sudeste 0 -- -- 76
2020-03-05 03:00:00 17.1 5 Sudeste 10 Este 0 -- -- 74
2020-03-05 02:00:00 17 4 Sur 10 Norte 0 -- -- 81
2020-03-05 01:00:00 17.3 8 Nordeste 11 Nordeste 0 -- -- 92
2020-03-05 00:00:00 17.7 4 Sur 12 Oeste 0 -- -- 90